• Join FlightAware (Why Join?)
  • Login
  • US Flag 
08:48AM EDT


 

Airport Tracker/Info


-or-


 

Live Flight TrackerFlight Track Log ✈ JBU972 ✈ 06-Aug-2013 ✈ KFLL - KLGA

Flight Track Log - Related Links

Times and Time Zones

All times are in EDT time to prevent confusion due to time zone crossing. See the JBU972 flight status page for this flight to view local times or setup timezone preferences in your user account.

Time Position Orientation Groundspeed Altitude Reporting Facility
EDT Latitude Longitude Course Direction KTS MPH feet Rate Location/Type
07:37AM 26.0719 -80.1783 288° West 146 168 900  Level Miami Center
07:38AM 26.0953 -80.2575 288° West 264 304 3,600 2,460 Climbing Miami Center
07:40AM 26.1667 -80.1414 56° Northeast 256 295 9,500 2,580 Climbing Miami Center
07:41AM 26.1831 -80.0608 77° East 261 300 11,600 1,560 Climbing Miami Center
07:42AM 26.2022 -79.9572 78° East 295 339 12,700 1,680 Climbing Miami Center
07:43AM 26.2272 -79.8492 76° East 333 383 15,000 2,100 Climbing Miami Center
07:44AM 26.2506 -79.7339 77° East 356 410 17,000 1,860 Climbing Miami Center
07:45AM 26.2817 -79.6303 71° East 376 433 18,800 1,740 Climbing Miami Center
07:46AM 26.3569 -79.5231 52° Northeast 382 440 20,500 1,740 Climbing Miami Center
07:47AM 26.4475 -79.4742 26° Northeast 396 456 22,400 1,620 Climbing Miami Center
07:48AM 26.5636 -79.4094 26° Northeast 406 467 23,800 1,380 Climbing Miami Center
07:49AM 26.6542 -79.3625 25° Northeast 406 467 25,200 1,320 Climbing Miami Center
07:50AM 26.7764 -79.3000 25° Northeast 406 467 26,500 1,200 Climbing Miami Center
07:51AM 26.8797 -79.2392 28° Northeast 411 473 27,600 1,140 Climbing Miami Center
07:52AM 26.9914 -79.1831 24° Northeast 416 479 28,800 1,080 Climbing Miami Center
07:53AM 27.1011 -79.1200 27° Northeast 423 487 29,800 1,080 Climbing Miami Center
07:54AM 27.2106 -79.0592 26° Northeast 428 493 31,000 1,380 Climbing Miami Center
07:55AM 27.3075 -79.0072 25° Northeast 427 491 32,600 1,440 Climbing Miami Center
07:56AM 27.4167 -78.9553 23° Northeast 422 486 33,900 1,380 Climbing Miami Center
07:57AM 27.5403 -78.9294 10° North 416 479 35,400 1,200 Climbing Miami Center
07:58AM 27.6533 -78.9150 North 410 472 36,400 780 Climbing Miami Center
07:59AM 27.7558 -78.9006 North 409 471 37,000 300 Climbing Miami Center
08:00AM 27.8667 -78.8861 North 409 471 37,000  Level Miami Center
08:01AM 27.9900 -78.8694 North 409 471 37,000 -60 Level Miami Center
08:02AM 28.1008 -78.8550 North 409 471 36,900 -60 Descending Miami Center
08:03AM 28.2119 -78.8381 North 409 471 36,900  Level Miami Center
08:04AM 28.3269 -78.8211 North 408 470 37,000  Climbing Miami Center
08:05AM 28.4397 -78.8044 North 408 470 37,000  Level Miami Center
08:06AM 28.5547 -78.7897 North 408 470 37,000  Level Miami Center
08:07AM 28.6697 -78.7728 North 408 470 37,000  Level Miami Center
08:08AM 28.7828 -78.7581 North 408 470 37,000 -60 Level Miami Center
08:09AM 28.8914 -78.7433 North 402 463 36,900  Descending Miami Center
08:10AM 29.0044 -78.7239 North 410 472 37,000  Climbing Miami Center
08:11AM 29.1150 -78.7069 North 404 465 37,000  Level Miami Center
08:12AM 29.2406 -78.6969 North 411 473 37,000  Level Miami Center
08:13AM 29.3469 -78.6797 North 401 461 37,000  Level Miami Center
08:14AM 29.4600 -78.6603 North 412 474 37,000  Level Miami Center
08:15AM 29.5728 -78.6478 North 405 466 37,000  Level Miami Center
08:17AM 29.7108 -78.6222 North 418 481 37,000  Level Jacksonville Center
08:18AM 29.8272 -78.6075 North 397 457 37,000  Level Jacksonville Center
08:19AM 29.9350 -78.5883 North 410 472 37,000  Level Jacksonville Center
08:20AM 30.0556 -78.5758 North 410 472 37,000  Level Jacksonville Center
08:21AM 30.1569 -78.5494 13° North 400 460 37,000  Level Jacksonville Center
08:22AM 30.2656 -78.5447 North 410 472 37,000  Level Jacksonville Center
08:23AM 30.3756 -78.5275 North 402 463 37,000  Level Jacksonville Center
08:24AM 30.4917 -78.5103 North 410 472 37,000  Level Jacksonville Center
08:25AM 30.6061 -78.4931 North 408 470 37,000  Level Jacksonville Center
08:26AM 30.7347 -78.4700 North 419 482 37,000  Level Jacksonville Center
08:27AM 30.8531 -78.4525 North 426 490 37,000  Level Jacksonville Center
08:28AM 30.9628 -78.4328 North 419 482 37,000  Level Jacksonville Center
08:29AM 31.0792 -78.4175 North 414 476 37,000  Level Jacksonville Center
08:30AM 31.1933 -78.4000 North 407 468 37,000  Level Jacksonville Center
08:31AM 31.3056 -78.3800 North 407 468 37,000  Level Jacksonville Center
08:32AM 31.4236 -78.3572 North 407 468 37,000  Level Jacksonville Center
08:33AM 31.5317 -78.3422 North 407 468 37,000  Level Jacksonville Center
08:34AM 31.6478 -78.3244 North 407 468 37,000  Level Jacksonville Center
08:35AM 31.7600 -78.3042 North 407 468 37,000  Level Jacksonville Center
08:36AM 31.8719 -78.2839 North 407 468 37,000  Level Jacksonville Center
08:37AM 31.9861 -78.2661 North 407 468 37,000  Level Jacksonville Center
08:38AM 32.0981 -78.2481 North 407 468 37,000  Level Jacksonville Center
08:39AM 32.2119 -78.2203 12° North 413 475 37,000  Level Jacksonville Center
08:40AM 32.3258 -78.1997 North 413 475 37,000  Level Jacksonville Center
08:41AM 32.4403 -78.1864 North 413 475 37,000  Level Jacksonville Center
08:42AM 32.5564 -78.1706 North 413 475 37,000  Level Jacksonville Center
08:43AM 32.6706 -78.1497 North 413 475 37,000  Level Jacksonville Center
08:44AM 32.7867 -78.1336 North 413 475 37,000  Level Jacksonville Center
08:45AM 32.9008 -78.1128 North 413 475 37,000  Level Jacksonville Center
08:46AM 33.0169 -78.0917 North 413 475 37,000  Level Jacksonville Center
08:47AM 33.1308 -78.0733 North 418 481 37,000  Level Jacksonville Center
08:48AM 33.2450 -78.0572 North 418 481 37,000 -60 Level Jacksonville Center
08:50AM 33.4525 -78.0233 North 422 486 36,900  Descending Washington Center
08:51AM 33.5633 -78.0064 North 417 480 37,000  Climbing Washington Center
08:52AM 33.6806 -77.9875 North 411 473 37,000  Level Washington Center
08:53AM 33.7914 -77.9706 North 411 473 37,000  Level Washington Center
08:54AM 33.9233 -77.9469 North 411 473 37,000  Level Washington Center
08:55AM 34.0386 -77.9250 North 418 481 37,000  Level Washington Center
08:56AM 34.1494 -77.9081 North 418 481 37,000  Level Washington Center
08:57AM 34.2644 -77.8886 North 412 474 37,000  Level Washington Center
08:58AM 34.3794 -77.8744 North 412 474 37,000  Level Washington Center
08:59AM 34.4903 -77.8622 North 407 468 37,000  Level Washington Center
09:00AM 34.6033 -77.8503 North 407 468 37,000 -60 Level Washington Center
09:01AM 34.7142 -77.8383 North 407 468 36,900  Descending Washington Center
09:02AM 34.8250 -77.8261 North 407 468 37,000  Climbing Washington Center
09:03AM 34.9378 -77.8139 North 407 468 37,000  Level Washington Center
09:04AM 35.0506 -77.8019 North 407 468 37,000  Level Washington Center
09:05AM 35.1614 -77.7897 North 402 463 37,000  Level Washington Center
09:06AM 35.2744 -77.7750 North 407 468 37,000  Level Washington Center
09:07AM 35.3853 -77.7653 North 407 468 37,000  Level Washington Center
09:08AM 35.4961 -77.7528 North 407 468 37,000  Level Washington Center
09:09AM 35.6006 -77.7431 North 407 468 37,000  Level Washington Center
09:10AM 35.7114 -77.7331 North 407 468 37,000  Level Washington Center
09:11AM 35.8242 -77.7208 North 407 468 37,000  Level Washington Center
09:12AM 35.9369 -77.7083 North 407 468 37,000  Level Washington Center
09:13AM 36.0525 -77.6731 14° North 412 474 37,000  Level Washington Center
09:14AM 36.1617 -77.6269 19° North 412 474 37,000  Level Washington Center
09:15AM 36.2711 -77.5808 19° North 417 480 37,000  Level Washington Center
09:16AM 36.3803 -77.5319 20° North 417 480 37,000  Level Washington Center
09:17AM 36.4981 -77.4806 19° North 409 471 37,000  Level Washington Center
09:18AM 36.6072 -77.4342 19° North 409 471 37,000  Level Washington Center
09:19AM 36.7164 -77.3850 20° North 409 471 37,000  Level Washington Center
09:20AM 36.8256 -77.3381 19° North 409 471 37,000  Level Washington Center
09:21AM 36.9347 -77.2911 19° North 409 471 37,000  Level Washington Center
09:22AM 37.0417 -77.2467 18° North 409 471 37,000  Level Washington Center
09:23AM 37.1506 -77.2178 12° North 404 465 37,000  Level Washington Center
09:24AM 37.2617 -77.1889 12° North 397 457 37,000  Level Washington Center
09:25AM 37.3581 -77.1492 18° North 401 461 37,000  Level Washington Center
09:26AM 37.4858 -77.1097 14° North 415 478 37,000  Level Washington Center
09:27AM 37.5781 -77.0722 18° North 426 490 37,000  Level Washington Center
09:28AM 37.6836 -76.9589 40° Northeast 426 490 37,000  Level Washington Center
09:29AM 37.7808 -76.8531 41° Northeast 443 510 37,000  Level Washington Center
09:30AM 37.8717 -76.7467 43° Northeast 443 510 37,000  Level Washington Center
09:31AM 37.9683 -76.6428 40° Northeast 448 516 37,000 -180 Level Washington Center
09:32AM 38.0839 -76.5519 32° Northeast 448 516 36,700 -600 Descending Washington Center
09:33AM 38.1928 -76.4714 30° Northeast 443 510 35,800 -960 Descending Washington Center
09:34AM 38.3019 -76.3856 32° Northeast 448 516 34,800 -960 Descending Washington Center
09:35AM 38.4067 -76.2886 36° Northeast 460 529 33,900 -900 Descending Washington Center
09:36AM 38.5117 -76.1939 35° Northeast 466 536 33,000 -960 Descending Washington Center
09:37AM 38.6078 -76.1072 35° Northeast 471 542 32,000 -1,020 Descending Washington Center
09:38AM 38.7125 -76.0094 36° Northeast 471 542 31,000 -1,020 Descending Washington Center
09:39AM 38.8192 -75.9061 37° Northeast 471 542 30,000 -1,320 Descending Washington Center
09:40AM 38.9256 -75.8103 35° Northeast 471 542 28,400 -1,620 Descending Washington Center
09:41AM 39.0258 -75.7172 36° Northeast 465 535 26,800 -1,440 Descending Washington Center
09:42AM 39.1239 -75.6211 37° Northeast 453 521 25,500 -1,320 Descending Washington Center
09:43AM 39.2197 -75.5328 36° Northeast 439 505 24,200 -1,440 Descending Washington Center
09:44AM 39.3133 -75.4442 36° Northeast 423 487 22,700 -1,500 Descending Washington Center
09:45AM 39.4050 -75.3686 32° Northeast 408 470 21,300 -1,380 Descending Washington Center
09:46AM 39.4903 -75.2903 35° Northeast 385 443 20,000 -1,320 Descending Washington Center
09:47AM 39.5733 -75.2119 36° Northeast 378 435 18,700 -1,380 Descending Washington Center
09:48AM 39.6625 -75.1278 36° Northeast 372 428 17,300 -1,440 Descending Washington Center
09:49AM 39.7478 -75.0544 33° Northeast 367 422 15,900 -1,320 Descending Washington Center
09:50AM 39.8203 -74.9944 32° Northeast 355 409 14,800 -1,260 Descending Washington Center
09:51AM 39.9500 -74.8667 37° Northeast 340 391 12,800 -1,260 Descending New York TRACON
09:52AM 40.0167 -74.7667 49° Northeast 339 390 11,600 -1,200 Descending New York TRACON
09:53AM 40.0667 -74.6833 52° Northeast 321 369 10,500 -900 Descending New York TRACON
09:54AM 40.1333 -74.6167 37° Northeast 302 348 10,000 -240 Descending New York TRACON
09:55AM 40.1833 -74.5333 52° Northeast 307 353 10,100  Climbing New York TRACON
09:56AM 40.2333 -74.4500 52° Northeast 304 350 10,100 -420 Level New York TRACON
09:57AM 40.3000 -74.3833 37° Northeast 303 349 9,400 -1,140 Descending New York TRACON
09:58AM 40.3500 -74.3000 52° Northeast 290 334 8,000 -1,200 Descending New York TRACON
09:59AM 40.4000 -74.2333 45° Northeast 279 321 7,100 -480 Descending New York TRACON
10:00AM 40.4667 -74.1667 37° Northeast 273 314 7,100 -540 Level New York TRACON
10:01AM 40.5000 -74.1000 57° Northeast 222 255 6,100 -1,140 Descending New York TRACON
10:02AM 40.5500 -74.0667 27° Northeast 215 247 4,900 -1,200 Descending New York TRACON
10:03AM 40.6000 -74.0167 37° Northeast 213 245 3,900 -1,140 Descending New York TRACON
10:04AM 40.6500 -73.9833 27° Northeast 202 232 2,700 -1,080 Descending New York TRACON
10:05AM 40.7000 -73.9500 27° Northeast 182 209 1,800 -900 Descending New York TRACON
10:06AM 40.7333 -73.9167 37° Northeast 136 157 1,000 -720 Descending New York TRACON
10:07AM 40.7500 -73.9000 37° Northeast 130 150 400 -600 Descending New York TRACON